sensor_id;sensor_type;location;lat;lon;timestamp;P1;durP1;ratioP1;P2;durP2;ratioP2
7575;SDS011;3829;50.798;4.358;2023-12-20T00:00:55;8.80;;;2.30;;
7575;SDS011;3829;50.798;4.358;2023-12-20T00:03:20;9.37;;;2.47;;
7575;SDS011;3829;50.798;4.358;2023-12-20T00:05:46;17.60;;;2.83;;
7575;SDS011;3829;50.798;4.358;2023-12-20T00:08:12;8.37;;;2.57;;
7575;SDS011;3829;50.798;4.358;2023-12-20T00:10:38;8.03;;;2.77;;
7575;SDS011;3829;50.798;4.358;2023-12-20T00:13:04;19.87;;;2.80;;
7575;SDS011;3829;50.798;4.358;2023-12-20T00:15:29;6.63;;;2.57;;
7575;SDS011;3829;50.798;4.358;2023-12-20T00:17:55;10.17;;;2.97;;
7575;SDS011;3829;50.798;4.358;2023-12-20T00:20:20;12.53;;;2.90;;
7575;SDS011;3829;50.798;4.358;2023-12-20T00:22:46;16.60;;;3.70;;
7575;SDS011;3829;50.798;4.358;2023-12-20T00:25:11;11.90;;;2.70;;
7575;SDS011;3829;50.798;4.358;2023-12-20T00:27:37;15.50;;;2.53;;
7575;SDS011;3829;50.798;4.358;2023-12-20T00:30:03;8.53;;;2.20;;
7575;SDS011;3829;50.798;4.358;2023-12-20T00:32:29;5.70;;;2.30;;
7575;SDS011;3829;50.798;4.358;2023-12-20T00:34:54;14.57;;;3.20;;
7575;SDS011;3829;50.798;4.358;2023-12-20T00:37:20;13.93;;;2.70;;
7575;SDS011;3829;50.798;4.358;2023-12-20T00:39:45;11.63;;;3.20;;
7575;SDS011;3829;50.798;4.358;2023-12-20T00:42:11;12.17;;;2.40;;
7575;SDS011;3829;50.798;4.358;2023-12-20T00:44:36;13.77;;;3.07;;
7575;SDS011;3829;50.798;4.358;2023-12-20T00:47:02;13.40;;;2.30;;
7575;SDS011;3829;50.798;4.358;2023-12-20T00:49:28;7.37;;;2.87;;
7575;SDS011;3829;50.798;4.358;2023-12-20T00:51:53;14.13;;;2.47;;
7575;SDS011;3829;50.798;4.358;2023-12-20T00:54:19;13.53;;;2.80;;
7575;SDS011;3829;50.798;4.358;2023-12-20T00:56:44;7.30;;;3.00;;
7575;SDS011;3829;50.798;4.358;2023-12-20T00:59:10;13.07;;;2.70;;
7575;SDS011;3829;50.798;4.358;2023-12-20T01:01:35;10.90;;;3.07;;
7575;SDS011;3829;50.798;4.358;2023-12-20T01:04:01;8.33;;;2.40;;
7575;SDS011;3829;50.798;4.358;2023-12-20T01:06:27;7.40;;;2.20;;
7575;SDS011;3829;50.798;4.358;2023-12-20T01:08:52;10.40;;;2.77;;
7575;SDS011;3829;50.798;4.358;2023-12-20T01:11:18;9.37;;;2.97;;
7575;SDS011;3829;50.798;4.358;2023-12-20T01:13:43;12.20;;;3.10;;
7575;SDS011;3829;50.798;4.358;2023-12-20T01:16:10;6.50;;;2.40;;
7575;SDS011;3829;50.798;4.358;2023-12-20T01:18:37;6.23;;;2.40;;
7575;SDS011;3829;50.798;4.358;2023-12-20T01:21:03;12.10;;;2.93;;
7575;SDS011;3829;50.798;4.358;2023-12-20T01:23:30;11.70;;;3.03;;
7575;SDS011;3829;50.798;4.358;2023-12-20T01:25:56;10.50;;;2.83;;
7575;SDS011;3829;50.798;4.358;2023-12-20T01:28:21;14.53;;;3.47;;
7575;SDS011;3829;50.798;4.358;2023-12-20T01:30:47;11.67;;;3.50;;
7575;SDS011;3829;50.798;4.358;2023-12-20T01:33:13;11.10;;;3.40;;
7575;SDS011;3829;50.798;4.358;2023-12-20T01:35:38;8.73;;;2.77;;
7575;SDS011;3829;50.798;4.358;2023-12-20T01:38:04;16.60;;;3.10;;
7575;SDS011;3829;50.798;4.358;2023-12-20T01:40:29;13.30;;;3.27;;
7575;SDS011;3829;50.798;4.358;2023-12-20T01:43:04;12.93;;;3.93;;
7575;SDS011;3829;50.798;4.358;2023-12-20T01:45:33;10.27;;;3.50;;
7575;SDS011;3829;50.798;4.358;2023-12-20T01:47:59;7.50;;;2.90;;
7575;SDS011;3829;50.798;4.358;2023-12-20T01:50:26;13.77;;;3.13;;
7575;SDS011;3829;50.798;4.358;2023-12-20T01:52:52;11.43;;;3.17;;
7575;SDS011;3829;50.798;4.358;2023-12-20T01:55:22;15.37;;;3.70;;
7575;SDS011;3829;50.798;4.358;2023-12-20T01:57:49;9.40;;;2.87;;
7575;SDS011;3829;50.798;4.358;2023-12-20T02:00:16;14.40;;;3.00;;
7575;SDS011;3829;50.798;4.358;2023-12-20T02:02:43;16.50;;;3.20;;
7575;SDS011;3829;50.798;4.358;2023-12-20T02:05:10;11.40;;;3.40;;
7575;SDS011;3829;50.798;4.358;2023-12-20T02:07:36;13.50;;;3.30;;
7575;SDS011;3829;50.798;4.358;2023-12-20T02:10:02;22.17;;;3.70;;
7575;SDS011;3829;50.798;4.358;2023-12-20T02:12:29;10.07;;;3.03;;
7575;SDS011;3829;50.798;4.358;2023-12-20T02:14:55;21.40;;;3.87;;
7575;SDS011;3829;50.798;4.358;2023-12-20T02:17:20;15.97;;;3.60;;
7575;SDS011;3829;50.798;4.358;2023-12-20T02:19:47;10.50;;;3.27;;
7575;SDS011;3829;50.798;4.358;2023-12-20T02:22:13;11.73;;;3.17;;
7575;SDS011;3829;50.798;4.358;2023-12-20T02:24:38;14.47;;;3.93;;
7575;SDS011;3829;50.798;4.358;2023-12-20T02:27:05;11.90;;;3.57;;
7575;SDS011;3829;50.798;4.358;2023-12-20T02:29:32;20.47;;;3.60;;
7575;SDS011;3829;50.798;4.358;2023-12-20T02:31:58;11.13;;;3.10;;
7575;SDS011;3829;50.798;4.358;2023-12-20T02:34:24;12.00;;;3.57;;
7575;SDS011;3829;50.798;4.358;2023-12-20T02:36:49;6.60;;;3.40;;
7575;SDS011;3829;50.798;4.358;2023-12-20T02:39:15;9.70;;;4.03;;
7575;SDS011;3829;50.798;4.358;2023-12-20T02:41:40;15.23;;;3.87;;
7575;SDS011;3829;50.798;4.358;2023-12-20T02:44:06;13.70;;;3.93;;
7575;SDS011;3829;50.798;4.358;2023-12-20T02:46:31;16.90;;;4.07;;
7575;SDS011;3829;50.798;4.358;2023-12-20T02:48:57;15.50;;;4.77;;
7575;SDS011;3829;50.798;4.358;2023-12-20T02:51:22;11.60;;;3.87;;
7575;SDS011;3829;50.798;4.358;2023-12-20T02:53:48;11.63;;;3.87;;
7575;SDS011;3829;50.798;4.358;2023-12-20T02:56:13;17.30;;;4.30;;
7575;SDS011;3829;50.798;4.358;2023-12-20T02:58:39;17.83;;;4.90;;
7575;SDS011;3829;50.798;4.358;2023-12-20T03:01:05;18.20;;;4.43;;
7575;SDS011;3829;50.798;4.358;2023-12-20T03:03:31;15.80;;;4.57;;
7575;SDS011;3829;50.798;4.358;2023-12-20T03:05:57;22.20;;;4.67;;
7575;SDS011;3829;50.798;4.358;2023-12-20T03:08:23;25.37;;;5.37;;
7575;SDS011;3829;50.798;4.358;2023-12-20T03:10:49;15.43;;;4.80;;
7575;SDS011;3829;50.798;4.358;2023-12-20T03:13:15;18.33;;;4.67;;
7575;SDS011;3829;50.798;4.358;2023-12-20T03:15:40;16.83;;;4.73;;
7575;SDS011;3829;50.798;4.358;2023-12-20T03:18:06;17.17;;;4.90;;
7575;SDS011;3829;50.798;4.358;2023-12-20T03:20:32;17.70;;;4.57;;
7575;SDS011;3829;50.798;4.358;2023-12-20T03:22:59;18.33;;;4.87;;
7575;SDS011;3829;50.798;4.358;2023-12-20T03:25:25;18.57;;;5.13;;
7575;SDS011;3829;50.798;4.358;2023-12-20T03:27:51;13.57;;;4.57;;
7575;SDS011;3829;50.798;4.358;2023-12-20T03:30:17;10.27;;;3.93;;
7575;SDS011;3829;50.798;4.358;2023-12-20T03:32:42;12.87;;;4.93;;
7575;SDS011;3829;50.798;4.358;2023-12-20T03:35:08;13.27;;;4.73;;
7575;SDS011;3829;50.798;4.358;2023-12-20T03:37:34;16.20;;;5.23;;
7575;SDS011;3829;50.798;4.358;2023-12-20T03:40:00;21.47;;;4.87;;
7575;SDS011;3829;50.798;4.358;2023-12-20T03:42:25;22.67;;;4.53;;
7575;SDS011;3829;50.798;4.358;2023-12-20T03:44:51;17.40;;;5.07;;
7575;SDS011;3829;50.798;4.358;2023-12-20T03:47:17;14.63;;;4.23;;
7575;SDS011;3829;50.798;4.358;2023-12-20T03:49:42;11.87;;;4.53;;
7575;SDS011;3829;50.798;4.358;2023-12-20T03:52:08;15.73;;;4.20;;
7575;SDS011;3829;50.798;4.358;2023-12-20T03:54:34;15.40;;;4.63;;
7575;SDS011;3829;50.798;4.358;2023-12-20T03:57:00;15.87;;;4.50;;
7575;SDS011;3829;50.798;4.358;2023-12-20T03:59:26;13.53;;;4.27;;
7575;SDS011;3829;50.798;4.358;2023-12-20T04:01:51;15.37;;;4.30;;
7575;SDS011;3829;50.798;4.358;2023-12-20T04:04:17;11.10;;;4.10;;
7575;SDS011;3829;50.798;4.358;2023-12-20T04:06:42;13.17;;;4.33;;
7575;SDS011;3829;50.798;4.358;2023-12-20T04:09:08;13.03;;;4.17;;
7575;SDS011;3829;50.798;4.358;2023-12-20T04:11:34;13.80;;;3.70;;
7575;SDS011;3829;50.798;4.358;2023-12-20T04:14:00;15.83;;;4.37;;
7575;SDS011;3829;50.798;4.358;2023-12-20T04:16:25;13.47;;;3.93;;
7575;SDS011;3829;50.798;4.358;2023-12-20T04:18:51;15.20;;;3.33;;
7575;SDS011;3829;50.798;4.358;2023-12-20T04:21:17;9.57;;;3.83;;
7575;SDS011;3829;50.798;4.358;2023-12-20T04:23:43;11.50;;;4.00;;
7575;SDS011;3829;50.798;4.358;2023-12-20T04:26:08;17.80;;;3.83;;
7575;SDS011;3829;50.798;4.358;2023-12-20T04:28:34;12.17;;;3.53;;
7575;SDS011;3829;50.798;4.358;2023-12-20T04:31:00;13.13;;;3.47;;
7575;SDS011;3829;50.798;4.358;2023-12-20T04:33:25;9.50;;;3.17;;
7575;SDS011;3829;50.798;4.358;2023-12-20T04:35:51;11.57;;;3.60;;
7575;SDS011;3829;50.798;4.358;2023-12-20T04:38:16;7.90;;;3.80;;
7575;SDS011;3829;50.798;4.358;2023-12-20T04:40:42;10.20;;;3.30;;
7575;SDS011;3829;50.798;4.358;2023-12-20T04:43:07;8.23;;;3.23;;
7575;SDS011;3829;50.798;4.358;2023-12-20T04:45:34;12.27;;;3.20;;
7575;SDS011;3829;50.798;4.358;2023-12-20T04:48:00;13.93;;;3.50;;
7575;SDS011;3829;50.798;4.358;2023-12-20T04:50:26;9.50;;;3.47;;
7575;SDS011;3829;50.798;4.358;2023-12-20T04:52:52;6.73;;;3.50;;
7575;SDS011;3829;50.798;4.358;2023-12-20T04:55:17;12.03;;;3.43;;
7575;SDS011;3829;50.798;4.358;2023-12-20T04:57:43;8.37;;;3.37;;
7575;SDS011;3829;50.798;4.358;2023-12-20T05:00:09;17.47;;;3.70;;
7575;SDS011;3829;50.798;4.358;2023-12-20T05:02:35;13.33;;;3.03;;
7575;SDS011;3829;50.798;4.358;2023-12-20T05:05:01;14.60;;;3.50;;
7575;SDS011;3829;50.798;4.358;2023-12-20T05:07:27;9.73;;;3.10;;
7575;SDS011;3829;50.798;4.358;2023-12-20T05:09:53;11.93;;;3.17;;
7575;SDS011;3829;50.798;4.358;2023-12-20T05:12:18;12.57;;;3.67;;
7575;SDS011;3829;50.798;4.358;2023-12-20T05:14:44;9.23;;;3.33;;
7575;SDS011;3829;50.798;4.358;2023-12-20T05:17:11;13.90;;;3.77;;
7575;SDS011;3829;50.798;4.358;2023-12-20T05:19:36;14.43;;;3.63;;
7575;SDS011;3829;50.798;4.358;2023-12-20T05:22:02;14.33;;;4.17;;
7575;SDS011;3829;50.798;4.358;2023-12-20T05:24:28;17.50;;;4.30;;
7575;SDS011;3829;50.798;4.358;2023-12-20T05:26:53;12.30;;;3.13;;
7575;SDS011;3829;50.798;4.358;2023-12-20T05:29:19;11.33;;;3.20;;
7575;SDS011;3829;50.798;4.358;2023-12-20T05:31:45;10.53;;;2.83;;
7575;SDS011;3829;50.798;4.358;2023-12-20T05:34:10;11.90;;;3.30;;
7575;SDS011;3829;50.798;4.358;2023-12-20T05:36:36;14.03;;;3.10;;
7575;SDS011;3829;50.798;4.358;2023-12-20T05:39:02;16.37;;;3.03;;
7575;SDS011;3829;50.798;4.358;2023-12-20T05:41:29;13.87;;;2.40;;
7575;SDS011;3829;50.798;4.358;2023-12-20T05:43:55;9.47;;;2.60;;
7575;SDS011;3829;50.798;4.358;2023-12-20T05:46:22;11.87;;;3.20;;
7575;SDS011;3829;50.798;4.358;2023-12-20T05:48:48;18.43;;;3.43;;
7575;SDS011;3829;50.798;4.358;2023-12-20T05:51:14;20.33;;;3.40;;
7575;SDS011;3829;50.798;4.358;2023-12-20T05:53:40;11.77;;;3.33;;
7575;SDS011;3829;50.798;4.358;2023-12-20T05:56:05;7.87;;;3.27;;
7575;SDS011;3829;50.798;4.358;2023-12-20T05:58:32;7.77;;;3.13;;
7575;SDS011;3829;50.798;4.358;2023-12-20T06:00:58;17.40;;;3.57;;
7575;SDS011;3829;50.798;4.358;2023-12-20T06:03:23;10.10;;;2.87;;
7575;SDS011;3829;50.798;4.358;2023-12-20T06:05:49;11.33;;;2.97;;
7575;SDS011;3829;50.798;4.358;2023-12-20T06:08:14;12.93;;;2.83;;
7575;SDS011;3829;50.798;4.358;2023-12-20T06:10:40;14.63;;;3.47;;
7575;SDS011;3829;50.798;4.358;2023-12-20T06:13:05;8.83;;;2.93;;
7575;SDS011;3829;50.798;4.358;2023-12-20T06:15:31;12.73;;;3.20;;
7575;SDS011;3829;50.798;4.358;2023-12-20T06:17:57;14.63;;;3.40;;
7575;SDS011;3829;50.798;4.358;2023-12-20T06:20:23;10.17;;;2.77;;
7575;SDS011;3829;50.798;4.358;2023-12-20T06:22:48;8.20;;;2.90;;
7575;SDS011;3829;50.798;4.358;2023-12-20T06:25:14;8.20;;;2.80;;
7575;SDS011;3829;50.798;4.358;2023-12-20T06:27:40;11.53;;;3.13;;
7575;SDS011;3829;50.798;4.358;2023-12-20T06:30:06;13.97;;;2.93;;
7575;SDS011;3829;50.798;4.358;2023-12-20T06:32:34;15.63;;;3.13;;
7575;SDS011;3829;50.798;4.358;2023-12-20T06:35:00;9.67;;;2.90;;
7575;SDS011;3829;50.798;4.358;2023-12-20T06:37:25;8.97;;;3.00;;
7575;SDS011;3829;50.798;4.358;2023-12-20T06:39:51;9.17;;;3.47;;
7575;SDS011;3829;50.798;4.358;2023-12-20T06:42:16;10.30;;;2.40;;
7575;SDS011;3829;50.798;4.358;2023-12-20T06:44:42;14.03;;;3.07;;
7575;SDS011;3829;50.798;4.358;2023-12-20T06:47:07;15.80;;;2.97;;
7575;SDS011;3829;50.798;4.358;2023-12-20T06:49:33;12.97;;;2.60;;
7575;SDS011;3829;50.798;4.358;2023-12-20T06:51:59;17.27;;;2.70;;
7575;SDS011;3829;50.798;4.358;2023-12-20T06:54:24;6.63;;;2.70;;
7575;SDS011;3829;50.798;4.358;2023-12-20T06:56:50;12.60;;;3.47;;
7575;SDS011;3829;50.798;4.358;2023-12-20T06:59:16;16.13;;;3.13;;
7575;SDS011;3829;50.798;4.358;2023-12-20T07:01:41;14.23;;;2.90;;
7575;SDS011;3829;50.798;4.358;2023-12-20T07:04:07;11.77;;;3.17;;
7575;SDS011;3829;50.798;4.358;2023-12-20T07:06:33;15.57;;;2.73;;
7575;SDS011;3829;50.798;4.358;2023-12-20T07:08:59;9.83;;;2.93;;
7575;SDS011;3829;50.798;4.358;2023-12-20T07:11:24;8.77;;;3.07;;
7575;SDS011;3829;50.798;4.358;2023-12-20T07:13:51;10.33;;;2.80;;
7575;SDS011;3829;50.798;4.358;2023-12-20T07:16:16;7.90;;;3.40;;
7575;SDS011;3829;50.798;4.358;2023-12-20T07:18:42;14.87;;;3.40;;
7575;SDS011;3829;50.798;4.358;2023-12-20T07:21:08;9.40;;;2.50;;
7575;SDS011;3829;50.798;4.358;2023-12-20T07:23:33;7.30;;;2.37;;
7575;SDS011;3829;50.798;4.358;2023-12-20T07:25:59;12.60;;;3.17;;
7575;SDS011;3829;50.798;4.358;2023-12-20T07:28:24;15.97;;;2.93;;
7575;SDS011;3829;50.798;4.358;2023-12-20T07:30:50;8.90;;;2.47;;
7575;SDS011;3829;50.798;4.358;2023-12-20T07:33:16;9.70;;;3.10;;
7575;SDS011;3829;50.798;4.358;2023-12-20T07:35:41;14.13;;;2.50;;
7575;SDS011;3829;50.798;4.358;2023-12-20T07:38:07;15.70;;;3.00;;
7575;SDS011;3829;50.798;4.358;2023-12-20T07:40:32;15.30;;;3.70;;
7575;SDS011;3829;50.798;4.358;2023-12-20T07:42:58;13.93;;;2.63;;
7575;SDS011;3829;50.798;4.358;2023-12-20T07:45:23;7.63;;;2.60;;
7575;SDS011;3829;50.798;4.358;2023-12-20T07:47:49;8.17;;;2.07;;
7575;SDS011;3829;50.798;4.358;2023-12-20T07:50:15;7.17;;;2.97;;
7575;SDS011;3829;50.798;4.358;2023-12-20T07:52:41;13.63;;;2.73;;
7575;SDS011;3829;50.798;4.358;2023-12-20T07:55:06;8.20;;;3.07;;
7575;SDS011;3829;50.798;4.358;2023-12-20T07:57:32;15.00;;;2.40;;
7575;SDS011;3829;50.798;4.358;2023-12-20T07:59:58;14.70;;;2.30;;
7575;SDS011;3829;50.798;4.358;2023-12-20T08:02:23;14.83;;;2.93;;
7575;SDS011;3829;50.798;4.358;2023-12-20T08:04:49;9.27;;;3.30;;
7575;SDS011;3829;50.798;4.358;2023-12-20T08:07:14;12.97;;;2.73;;
7575;SDS011;3829;50.798;4.358;2023-12-20T08:09:40;7.50;;;2.60;;
7575;SDS011;3829;50.798;4.358;2023-12-20T08:12:05;13.80;;;2.67;;
7575;SDS011;3829;50.798;4.358;2023-12-20T08:14:31;17.33;;;3.27;;
7575;SDS011;3829;50.798;4.358;2023-12-20T08:16:57;13.33;;;3.63;;
7575;SDS011;3829;50.798;4.358;2023-12-20T08:19:23;11.67;;;2.87;;
7575;SDS011;3829;50.798;4.358;2023-12-20T08:21:48;19.37;;;2.80;;
7575;SDS011;3829;50.798;4.358;2023-12-20T08:24:14;10.87;;;2.87;;
7575;SDS011;3829;50.798;4.358;2023-12-20T08:26:39;18.27;;;3.53;;
7575;SDS011;3829;50.798;4.358;2023-12-20T08:29:05;9.13;;;2.87;;
7575;SDS011;3829;50.798;4.358;2023-12-20T08:31:30;19.90;;;3.43;;
7575;SDS011;3829;50.798;4.358;2023-12-20T08:33:56;18.93;;;3.60;;
7575;SDS011;3829;50.798;4.358;2023-12-20T08:36:22;7.90;;;2.53;;
7575;SDS011;3829;50.798;4.358;2023-12-20T08:38:48;14.67;;;2.93;;
7575;SDS011;3829;50.798;4.358;2023-12-20T08:41:14;12.37;;;2.87;;
7575;SDS011;3829;50.798;4.358;2023-12-20T08:43:40;11.90;;;2.33;;
7575;SDS011;3829;50.798;4.358;2023-12-20T08:46:06;13.70;;;3.77;;
7575;SDS011;3829;50.798;4.358;2023-12-20T08:48:34;10.70;;;3.10;;
7575;SDS011;3829;50.798;4.358;2023-12-20T08:51:00;17.53;;;3.67;;
7575;SDS011;3829;50.798;4.358;2023-12-20T08:53:25;9.20;;;2.73;;
7575;SDS011;3829;50.798;4.358;2023-12-20T08:55:51;14.90;;;3.13;;
7575;SDS011;3829;50.798;4.358;2023-12-20T08:58:17;6.93;;;2.70;;
7575;SDS011;3829;50.798;4.358;2023-12-20T09:00:43;13.00;;;3.60;;
7575;SDS011;3829;50.798;4.358;2023-12-20T09:03:08;11.03;;;2.53;;
7575;SDS011;3829;50.798;4.358;2023-12-20T09:05:40;15.60;;;3.20;;
7575;SDS011;3829;50.798;4.358;2023-12-20T09:08:06;6.90;;;2.93;;
7575;SDS011;3829;50.798;4.358;2023-12-20T09:10:33;14.73;;;3.23;;
7575;SDS011;3829;50.798;4.358;2023-12-20T09:12:58;15.13;;;3.07;;
7575;SDS011;3829;50.798;4.358;2023-12-20T09:15:24;12.33;;;2.93;;
7575;SDS011;3829;50.798;4.358;2023-12-20T09:17:51;11.53;;;2.57;;
7575;SDS011;3829;50.798;4.358;2023-12-20T09:20:17;16.40;;;3.73;;
7575;SDS011;3829;50.798;4.358;2023-12-20T09:22:43;8.17;;;2.83;;
7575;SDS011;3829;50.798;4.358;2023-12-20T09:25:09;14.63;;;3.40;;
7575;SDS011;3829;50.798;4.358;2023-12-20T09:27:36;9.97;;;3.40;;
7575;SDS011;3829;50.798;4.358;2023-12-20T09:30:02;12.93;;;2.83;;
7575;SDS011;3829;50.798;4.358;2023-12-20T09:32:29;9.17;;;2.90;;
7575;SDS011;3829;50.798;4.358;2023-12-20T09:34:54;10.93;;;3.37;;
7575;SDS011;3829;50.798;4.358;2023-12-20T09:37:20;14.67;;;3.30;;
7575;SDS011;3829;50.798;4.358;2023-12-20T09:39:45;14.83;;;4.03;;
7575;SDS011;3829;50.798;4.358;2023-12-20T09:42:11;8.87;;;2.90;;
7575;SDS011;3829;50.798;4.358;2023-12-20T09:44:41;9.97;;;2.80;;
7575;SDS011;3829;50.798;4.358;2023-12-20T09:47:09;15.27;;;3.43;;
7575;SDS011;3829;50.798;4.358;2023-12-20T09:49:35;10.87;;;3.00;;
7575;SDS011;3829;50.798;4.358;2023-12-20T09:52:02;6.23;;;2.53;;
7575;SDS011;3829;50.798;4.358;2023-12-20T09:54:29;5.87;;;2.80;;
7575;SDS011;3829;50.798;4.358;2023-12-20T09:56:55;13.50;;;3.20;;
7575;SDS011;3829;50.798;4.358;2023-12-20T09:59:21;12.17;;;3.40;;
7575;SDS011;3829;50.798;4.358;2023-12-20T10:01:47;12.03;;;3.40;;
7575;SDS011;3829;50.798;4.358;2023-12-20T10:04:13;15.67;;;2.87;;
7575;SDS011;3829;50.798;4.358;2023-12-20T10:06:41;14.83;;;3.03;;
7575;SDS011;3829;50.798;4.358;2023-12-20T10:09:08;10.43;;;2.67;;
7575;SDS011;3829;50.798;4.358;2023-12-20T10:11:36;9.90;;;2.90;;
7575;SDS011;3829;50.798;4.358;2023-12-20T10:14:03;12.23;;;2.97;;
7575;SDS011;3829;50.798;4.358;2023-12-20T10:16:29;10.37;;;3.50;;
7575;SDS011;3829;50.798;4.358;2023-12-20T10:18:55;10.70;;;2.77;;
7575;SDS011;3829;50.798;4.358;2023-12-20T10:21:22;7.13;;;2.70;;
7575;SDS011;3829;50.798;4.358;2023-12-20T10:23:51;10.67;;;3.10;;
7575;SDS011;3829;50.798;4.358;2023-12-20T10:26:24;11.83;;;3.57;;
7575;SDS011;3829;50.798;4.358;2023-12-20T10:28:55;17.80;;;3.93;;
7575;SDS011;3829;50.798;4.358;2023-12-20T10:31:26;16.10;;;3.40;;
7575;SDS011;3829;50.798;4.358;2023-12-20T10:33:53;12.97;;;3.67;;
7575;SDS011;3829;50.798;4.358;2023-12-20T10:36:20;14.83;;;3.47;;
7575;SDS011;3829;50.798;4.358;2023-12-20T10:38:48;14.70;;;4.03;;
7575;SDS011;3829;50.798;4.358;2023-12-20T10:41:16;8.70;;;2.93;;
7575;SDS011;3829;50.798;4.358;2023-12-20T10:43:51;12.40;;;3.53;;
7575;SDS011;3829;50.798;4.358;2023-12-20T10:46:17;9.40;;;2.50;;
7575;SDS011;3829;50.798;4.358;2023-12-20T10:48:45;10.90;;;3.03;;
7575;SDS011;3829;50.798;4.358;2023-12-20T10:51:12;12.87;;;3.67;;
7575;SDS011;3829;50.798;4.358;2023-12-20T10:53:42;17.30;;;3.57;;
7575;SDS011;3829;50.798;4.358;2023-12-20T10:56:09;10.60;;;3.07;;
7575;SDS011;3829;50.798;4.358;2023-12-20T10:58:41;12.60;;;2.73;;
7575;SDS011;3829;50.798;4.358;2023-12-20T11:01:09;12.00;;;3.63;;
7575;SDS011;3829;50.798;4.358;2023-12-20T11:03:37;9.60;;;3.30;;
7575;SDS011;3829;50.798;4.358;2023-12-20T11:06:05;14.33;;;3.67;;
7575;SDS011;3829;50.798;4.358;2023-12-20T11:08:40;7.37;;;2.63;;
7575;SDS011;3829;50.798;4.358;2023-12-20T11:11:29;9.17;;;3.03;;
7575;SDS011;3829;50.798;4.358;2023-12-20T11:14:05;8.93;;;2.77;;
7575;SDS011;3829;50.798;4.358;2023-12-20T11:16:37;8.53;;;2.23;;
7575;SDS011;3829;50.798;4.358;2023-12-20T11:19:05;7.80;;;2.63;;
7575;SDS011;3829;50.798;4.358;2023-12-20T11:21:30;9.50;;;3.00;;
7575;SDS011;3829;50.798;4.358;2023-12-20T11:23:56;10.57;;;2.50;;
7575;SDS011;3829;50.798;4.358;2023-12-20T11:26:26;10.13;;;2.67;;
7575;SDS011;3829;50.798;4.358;2023-12-20T11:28:53;10.53;;;2.83;;
7575;SDS011;3829;50.798;4.358;2023-12-20T11:31:19;13.17;;;3.10;;
7575;SDS011;3829;50.798;4.358;2023-12-20T11:33:45;10.17;;;2.77;;
7575;SDS011;3829;50.798;4.358;2023-12-20T11:36:14;16.47;;;3.17;;
7575;SDS011;3829;50.798;4.358;2023-12-20T11:41:20;8.30;;;2.77;;
7575;SDS011;3829;50.798;4.358;2023-12-20T11:43:48;12.63;;;2.97;;
7575;SDS011;3829;50.798;4.358;2023-12-20T11:46:17;15.07;;;3.53;;
7575;SDS011;3829;50.798;4.358;2023-12-20T11:48:43;16.07;;;3.70;;
7575;SDS011;3829;50.798;4.358;2023-12-20T11:51:11;11.37;;;2.67;;
7575;SDS011;3829;50.798;4.358;2023-12-20T11:53:37;14.27;;;3.77;;
7575;SDS011;3829;50.798;4.358;2023-12-20T11:56:04;11.83;;;3.00;;
7575;SDS011;3829;50.798;4.358;2023-12-20T11:58:31;9.27;;;3.20;;
7575;SDS011;3829;50.798;4.358;2023-12-20T12:00:58;12.47;;;3.13;;
7575;SDS011;3829;50.798;4.358;2023-12-20T12:03:24;17.37;;;3.27;;
7575;SDS011;3829;50.798;4.358;2023-12-20T12:05:51;14.00;;;3.30;;
7575;SDS011;3829;50.798;4.358;2023-12-20T12:08:18;13.83;;;3.83;;
7575;SDS011;3829;50.798;4.358;2023-12-20T12:10:44;14.40;;;3.20;;
7575;SDS011;3829;50.798;4.358;2023-12-20T12:13:13;15.30;;;3.67;;
7575;SDS011;3829;50.798;4.358;2023-12-20T12:15:40;17.37;;;3.90;;
7575;SDS011;3829;50.798;4.358;2023-12-20T12:18:07;13.63;;;3.13;;
7575;SDS011;3829;50.798;4.358;2023-12-20T12:20:33;9.47;;;2.93;;
7575;SDS011;3829;50.798;4.358;2023-12-20T12:23:00;10.80;;;3.07;;
7575;SDS011;3829;50.798;4.358;2023-12-20T12:25:29;9.60;;;3.40;;
7575;SDS011;3829;50.798;4.358;2023-12-20T12:27:57;8.27;;;2.90;;
7575;SDS011;3829;50.798;4.358;2023-12-20T12:30:23;8.10;;;3.10;;
7575;SDS011;3829;50.798;4.358;2023-12-20T12:32:50;12.80;;;2.97;;
7575;SDS011;3829;50.798;4.358;2023-12-20T12:35:17;20.53;;;3.00;;
7575;SDS011;3829;50.798;4.358;2023-12-20T12:37:42;9.40;;;2.77;;
7575;SDS011;3829;50.798;4.358;2023-12-20T12:40:10;10.43;;;3.07;;
7575;SDS011;3829;50.798;4.358;2023-12-20T12:42:39;11.00;;;3.03;;
7575;SDS011;3829;50.798;4.358;2023-12-20T12:45:06;12.73;;;3.40;;
7575;SDS011;3829;50.798;4.358;2023-12-20T12:47:32;16.73;;;4.17;;
7575;SDS011;3829;50.798;4.358;2023-12-20T12:49:58;11.73;;;3.17;;
7575;SDS011;3829;50.798;4.358;2023-12-20T12:52:24;10.33;;;2.63;;
7575;SDS011;3829;50.798;4.358;2023-12-20T12:54:49;11.13;;;2.30;;
7575;SDS011;3829;50.798;4.358;2023-12-20T12:57:15;9.60;;;2.77;;
7575;SDS011;3829;50.798;4.358;2023-12-20T12:59:41;13.97;;;3.43;;
7575;SDS011;3829;50.798;4.358;2023-12-20T13:02:09;12.30;;;3.20;;
7575;SDS011;3829;50.798;4.358;2023-12-20T13:04:34;13.90;;;3.00;;
7575;SDS011;3829;50.798;4.358;2023-12-20T13:07:00;11.63;;;3.03;;
7575;SDS011;3829;50.798;4.358;2023-12-20T13:09:26;17.70;;;3.30;;
7575;SDS011;3829;50.798;4.358;2023-12-20T13:11:54;11.87;;;2.90;;
7575;SDS011;3829;50.798;4.358;2023-12-20T13:14:20;8.23;;;2.97;;
7575;SDS011;3829;50.798;4.358;2023-12-20T13:16:46;12.73;;;3.20;;
7575;SDS011;3829;50.798;4.358;2023-12-20T13:19:12;11.40;;;2.93;;
7575;SDS011;3829;50.798;4.358;2023-12-20T13:21:38;9.23;;;2.40;;
7575;SDS011;3829;50.798;4.358;2023-12-20T13:24:05;10.07;;;2.97;;
7575;SDS011;3829;50.798;4.358;2023-12-20T13:26:31;9.40;;;2.47;;
7575;SDS011;3829;50.798;4.358;2023-12-20T13:28:58;15.90;;;3.40;;
7575;SDS011;3829;50.798;4.358;2023-12-20T13:31:23;12.40;;;3.03;;
7575;SDS011;3829;50.798;4.358;2023-12-20T13:33:49;6.27;;;2.47;;
7575;SDS011;3829;50.798;4.358;2023-12-20T13:36:17;12.10;;;3.07;;
7575;SDS011;3829;50.798;4.358;2023-12-20T13:38:43;9.57;;;3.00;;
7575;SDS011;3829;50.798;4.358;2023-12-20T13:41:08;11.77;;;2.83;;
7575;SDS011;3829;50.798;4.358;2023-12-20T13:43:34;6.47;;;2.60;;
7575;SDS011;3829;50.798;4.358;2023-12-20T13:46:00;9.97;;;2.83;;
7575;SDS011;3829;50.798;4.358;2023-12-20T13:48:26;17.03;;;3.33;;
7575;SDS011;3829;50.798;4.358;2023-12-20T13:50:52;8.37;;;2.60;;
7575;SDS011;3829;50.798;4.358;2023-12-20T13:53:18;8.73;;;2.53;;
7575;SDS011;3829;50.798;4.358;2023-12-20T13:55:44;10.80;;;3.07;;
7575;SDS011;3829;50.798;4.358;2023-12-20T13:58:09;9.53;;;2.80;;
7575;SDS011;3829;50.798;4.358;2023-12-20T14:00:35;14.60;;;3.17;;
7575;SDS011;3829;50.798;4.358;2023-12-20T14:03:01;18.47;;;2.90;;
7575;SDS011;3829;50.798;4.358;2023-12-20T14:05:28;15.13;;;3.07;;
7575;SDS011;3829;50.798;4.358;2023-12-20T14:07:55;10.53;;;2.50;;
7575;SDS011;3829;50.798;4.358;2023-12-20T14:10:23;11.07;;;3.20;;
7575;SDS011;3829;50.798;4.358;2023-12-20T14:12:51;16.67;;;3.63;;
7575;SDS011;3829;50.798;4.358;2023-12-20T14:15:17;13.20;;;2.60;;
7575;SDS011;3829;50.798;4.358;2023-12-20T14:17:43;15.37;;;4.13;;
7575;SDS011;3829;50.798;4.358;2023-12-20T14:20:09;15.30;;;3.13;;
7575;SDS011;3829;50.798;4.358;2023-12-20T14:22:35;13.20;;;3.47;;
7575;SDS011;3829;50.798;4.358;2023-12-20T14:25:01;19.70;;;3.40;;
7575;SDS011;3829;50.798;4.358;2023-12-20T14:27:27;7.63;;;2.23;;
7575;SDS011;3829;50.798;4.358;2023-12-20T14:29:53;10.93;;;2.77;;
7575;SDS011;3829;50.798;4.358;2023-12-20T14:32:19;7.23;;;2.57;;
7575;SDS011;3829;50.798;4.358;2023-12-20T14:34:45;18.27;;;3.90;;
7575;SDS011;3829;50.798;4.358;2023-12-20T14:37:11;10.03;;;3.00;;
7575;SDS011;3829;50.798;4.358;2023-12-20T14:39:36;11.80;;;3.00;;
7575;SDS011;3829;50.798;4.358;2023-12-20T14:42:07;13.23;;;2.77;;
7575;SDS011;3829;50.798;4.358;2023-12-20T14:44:39;14.67;;;2.93;;
7575;SDS011;3829;50.798;4.358;2023-12-20T14:47:05;9.17;;;3.03;;
7575;SDS011;3829;50.798;4.358;2023-12-20T14:49:31;16.30;;;3.67;;
7575;SDS011;3829;50.798;4.358;2023-12-20T14:51:57;13.13;;;3.50;;
7575;SDS011;3829;50.798;4.358;2023-12-20T14:54:23;8.50;;;3.27;;
7575;SDS011;3829;50.798;4.358;2023-12-20T14:56:49;10.50;;;3.60;;
7575;SDS011;3829;50.798;4.358;2023-12-20T14:59:14;11.50;;;3.03;;
7575;SDS011;3829;50.798;4.358;2023-12-20T15:01:40;9.70;;;3.27;;